createdAt,value
2018-02-09T00:00:09.236Z,0.98
2018-02-09T00:02:37.078Z,0.92
2018-02-09T00:05:04.547Z,0.89
2018-02-09T00:07:32.121Z,0.88
2018-02-09T00:09:59.688Z,0.83
2018-02-09T00:12:27.134Z,0.80
2018-02-09T00:14:54.630Z,0.72
2018-02-09T00:17:22.091Z,0.72
2018-02-09T00:19:49.541Z,0.76
2018-02-09T00:22:17.022Z,0.78
2018-02-09T00:24:44.916Z,0.78
2018-02-09T00:27:12.373Z,0.77
2018-02-09T00:29:39.827Z,0.77
2018-02-09T00:32:17.258Z,0.75
2018-02-09T00:34:44.736Z,0.76
2018-02-09T00:37:12.514Z,0.74
2018-02-09T00:39:40.080Z,0.70
2018-02-09T00:42:07.567Z,0.69
2018-02-09T00:44:35.408Z,0.71
2018-02-09T00:47:02.866Z,0.72
2018-02-09T00:49:30.328Z,0.71
2018-02-09T00:51:58.120Z,0.68
2018-02-09T00:54:25.614Z,0.69
2018-02-09T00:56:53.125Z,0.69
2018-02-09T00:59:20.944Z,0.66
2018-02-09T01:01:48.440Z,0.67
2018-02-09T01:04:15.890Z,0.67
2018-02-09T01:06:43.792Z,0.67
2018-02-09T01:09:11.291Z,0.62
2018-02-09T01:11:38.770Z,0.57
2018-02-09T01:14:06.356Z,0.55
2018-02-09T01:16:33.816Z,0.53
2018-02-09T01:19:01.297Z,0.50
2018-02-09T01:21:28.764Z,0.47
2018-02-09T01:23:56.264Z,0.49
2018-02-09T01:26:23.702Z,0.53
2018-02-09T01:28:51.230Z,0.57
2018-02-09T01:31:18.684Z,0.55
2018-02-09T01:33:46.194Z,0.57
2018-02-09T01:36:13.656Z,0.57
2018-02-09T01:38:41.114Z,0.59
2018-02-09T01:41:08.614Z,0.59
2018-02-09T01:43:36.056Z,0.61
2018-02-09T01:46:03.534Z,0.59
2018-02-09T01:48:31.088Z,0.59
2018-02-09T01:50:58.704Z,0.60
2018-02-09T01:53:26.160Z,0.59
2018-02-09T01:55:53.602Z,0.59
2018-02-09T01:58:21.153Z,0.59
2018-02-09T02:00:48.580Z,0.60
2018-02-09T02:03:16.130Z,0.60
2018-02-09T02:05:43.642Z,0.60
2018-02-09T02:08:11.188Z,0.59
2018-02-09T02:10:38.670Z,0.62
2018-02-09T02:13:06.520Z,0.53
2018-02-09T02:15:34.024Z,0.50
2018-02-09T02:18:01.465Z,0.50
2018-02-09T02:20:28.990Z,0.53
2018-02-09T02:22:56.474Z,0.53
2018-02-09T02:25:23.925Z,0.56
2018-02-09T02:27:51.413Z,0.58
2018-02-09T02:30:19.829Z,0.58
2018-02-09T02:32:47.312Z,0.58
2018-02-09T02:35:15.682Z,0.57
2018-02-09T02:37:43.194Z,0.60
2018-02-09T02:40:10.650Z,0.59
2018-02-09T02:42:38.232Z,0.53
2018-02-09T02:45:05.728Z,0.54
2018-02-09T02:47:33.228Z,0.52
2018-02-09T02:50:00.697Z,0.49
2018-02-09T02:52:28.198Z,0.50
2018-02-09T02:54:55.660Z,0.47
2018-02-09T02:57:23.218Z,0.46
2018-02-09T02:59:50.740Z,0.42
2018-02-09T03:02:18.244Z,0.42
2018-02-09T03:04:45.836Z,0.44
2018-02-09T03:07:13.306Z,0.44
2018-02-09T03:09:41.122Z,0.45
2018-02-09T03:12:08.614Z,0.42
2018-02-09T03:14:36.176Z,0.42
2018-02-09T03:17:03.650Z,0.39
2018-02-09T03:19:38.380Z,0.38
2018-02-09T03:22:06.192Z,0.35
2018-02-09T03:24:33.724Z,0.32
2018-02-09T03:27:01.262Z,0.33
2018-02-09T03:29:28.776Z,0.39
2018-02-09T03:31:56.506Z,0.39
2018-02-09T03:34:24.046Z,0.39
2018-02-09T03:36:51.547Z,0.38
2018-02-09T03:39:18.992Z,0.33
2018-02-09T03:41:46.432Z,0.35
2018-02-09T03:44:13.918Z,0.35
2018-02-09T03:46:41.372Z,0.36
2018-02-09T03:49:09.106Z,0.38
2018-02-09T03:51:36.770Z,0.41
2018-02-09T03:54:04.254Z,0.42
2018-02-09T03:56:31.760Z,0.42
2018-02-09T03:58:59.220Z,0.40
2018-02-09T04:01:29.370Z,0.41
2018-02-09T04:03:56.990Z,0.39
2018-02-09T04:06:24.445Z,0.35
2018-02-09T04:08:51.950Z,0.32
2018-02-09T04:11:19.712Z,0.31
2018-02-09T04:13:47.166Z,0.30
2018-02-09T04:16:14.625Z,0.27
2018-02-09T04:18:42.144Z,0.27
2018-02-09T04:21:09.915Z,0.30
2018-02-09T04:23:37.406Z,0.22
2018-02-09T04:26:04.888Z,0.21
2018-02-09T04:28:32.676Z,0.21
2018-02-09T04:31:00.111Z,0.20
2018-02-09T04:33:27.568Z,0.21
2018-02-09T04:35:55.058Z,0.20
2018-02-09T04:38:22.527Z,0.16
2018-02-09T04:40:49.978Z,0.17
2018-02-09T04:43:17.476Z,0.18
2018-02-09T04:45:46.179Z,0.16
2018-02-09T04:48:13.669Z,0.13
2018-02-09T04:50:41.150Z,0.15
2018-02-09T04:53:08.630Z,0.15
2018-02-09T04:55:36.077Z,0.13
2018-02-09T04:58:03.593Z,0.15
2018-02-09T05:00:31.057Z,0.15
2018-02-09T05:02:58.636Z,0.15
2018-02-09T05:05:26.096Z,0.12
2018-02-09T05:07:53.578Z,0.12
2018-02-09T05:10:22.214Z,0.14
2018-02-09T05:12:49.717Z,0.13
2018-02-09T05:15:17.185Z,0.09
2018-02-09T05:17:44.638Z,0.07
2018-02-09T05:20:12.145Z,0.07
2018-02-09T05:22:39.612Z,0.02
2018-02-09T05:25:07.470Z,-0.02
2018-02-09T05:27:34.975Z,-0.07
2018-02-09T05:30:02.457Z,-0.12
2018-02-09T05:32:30.023Z,-0.11
2018-02-09T05:34:57.698Z,-0.16
2018-02-09T05:37:25.155Z,-0.14
2018-02-09T05:39:52.718Z,-0.18
2018-02-09T05:42:20.431Z,-0.23
2018-02-09T05:44:47.920Z,-0.20
2018-02-09T05:47:15.372Z,-0.20
2018-02-09T05:49:42.953Z,-0.25
2018-02-09T05:52:10.476Z,-0.30
2018-02-09T05:54:37.967Z,-0.31
2018-02-09T05:57:05.426Z,-0.31
2018-02-09T05:59:32.983Z,-0.30
2018-02-09T06:02:00.466Z,-0.38
2018-02-09T06:04:28.329Z,-0.37
2018-02-09T06:06:55.813Z,-0.39
2018-02-09T06:09:23.270Z,-0.41
2018-02-09T06:11:50.773Z,-0.40
2018-02-09T06:14:18.253Z,-0.39
2018-02-09T06:16:45.751Z,-0.38
2018-02-09T06:19:13.237Z,-0.38
2018-02-09T06:21:40.761Z,-0.40
2018-02-09T06:24:08.261Z,-0.39
2018-02-09T06:26:36.129Z,-0.40
2018-02-09T06:29:03.622Z,-0.38
2018-02-09T06:31:31.111Z,-0.40
2018-02-09T06:33:58.705Z,-0.42
2018-02-09T06:36:26.227Z,-0.42
2018-02-09T06:38:54.083Z,-0.42
2018-02-09T06:41:21.695Z,-0.46
2018-02-09T06:43:50.349Z,-0.47
2018-02-09T06:46:17.897Z,-0.48
2018-02-09T06:48:45.371Z,-0.46
2018-02-09T06:51:12.977Z,-0.47
2018-02-09T06:53:40.439Z,-0.52
2018-02-09T06:56:07.930Z,-0.41
2018-02-09T06:58:35.377Z,-0.31
2018-02-09T07:01:02.939Z,-0.29
2018-02-09T07:03:30.444Z,-0.32
2018-02-09T07:05:58.278Z,-0.34
2018-02-09T07:08:25.887Z,-0.33
2018-02-09T07:10:53.361Z,-0.33
2018-02-09T07:13:20.883Z,-0.37
2018-02-09T07:15:48.429Z,-0.32
2018-02-09T07:18:15.899Z,-0.29
2018-02-09T07:20:43.395Z,-0.28
2018-02-09T07:23:11.199Z,-0.25
2018-02-09T07:25:38.685Z,-0.22
2018-02-09T07:28:06.150Z,-0.21
2018-02-09T07:30:33.609Z,-0.19
2018-02-09T07:33:01.131Z,-0.15
2018-02-09T07:35:28.721Z,-0.14
2018-02-09T07:37:56.268Z,-0.12
2018-02-09T07:40:24.113Z,-0.15
2018-02-09T07:42:52.463Z,-0.16
2018-02-09T07:45:19.925Z,-0.13
2018-02-09T07:47:47.395Z,-0.11
2018-02-09T07:50:14.909Z,-0.09
2018-02-09T07:52:42.415Z,-0.03
2018-02-09T07:55:09.903Z,0.03
2018-02-09T07:57:37.495Z,0.15
2018-02-09T08:00:05.853Z,0.26
2018-02-09T08:02:33.609Z,0.28
2018-02-09T08:05:01.105Z,0.26
2018-02-09T08:07:28.587Z,0.34
2018-02-09T08:09:56.101Z,0.43
2018-02-09T08:12:23.699Z,0.39
2018-02-09T08:14:51.473Z,0.45
2018-02-09T08:17:18.968Z,0.50
2018-02-09T08:19:46.731Z,0.63
2018-02-09T08:22:14.618Z,0.79
2018-02-09T08:24:42.093Z,0.88
2018-02-09T08:27:09.930Z,1.01
2018-02-09T08:29:37.591Z,1.03
2018-02-09T08:32:05.057Z,0.84
2018-02-09T08:34:32.653Z,0.74
2018-02-09T08:37:00.269Z,0.71
2018-02-09T08:39:27.780Z,0.70
2018-02-09T08:41:55.557Z,0.64
2018-02-09T08:44:23.265Z,0.61
2018-02-09T08:46:50.893Z,0.51
2018-02-09T08:49:18.526Z,0.47
2018-02-09T08:51:46.337Z,0.45
2018-02-09T08:54:13.889Z,0.48
2018-02-09T08:56:41.477Z,0.48
2018-02-09T08:59:09.121Z,0.52
2018-02-09T09:01:36.659Z,0.58
2018-02-09T09:04:04.196Z,0.63
2018-02-09T09:06:32.035Z,0.71
2018-02-09T09:08:59.653Z,0.70
2018-02-09T09:11:27.230Z,0.72
2018-02-09T09:13:54.801Z,0.73
2018-02-09T09:16:22.388Z,0.79
2018-02-09T09:18:50.117Z,0.83
2018-02-09T09:21:17.987Z,0.87
2018-02-09T09:23:45.530Z,0.95
2018-02-09T09:26:13.005Z,0.94
2018-02-09T09:28:41.415Z,0.96
2018-02-09T09:31:09.887Z,1.05
2018-02-09T09:33:37.403Z,1.07
2018-02-09T09:36:05.208Z,1.12
2018-02-09T09:38:32.684Z,1.17
2018-02-09T09:41:00.175Z,1.21
2018-02-09T09:43:27.909Z,1.28
2018-02-09T09:45:55.412Z,1.29
2018-02-09T09:48:22.983Z,1.30
2018-02-09T09:50:50.509Z,1.38
2018-02-09T09:53:18.111Z,1.43
2018-02-09T09:55:45.797Z,1.47
2018-02-09T09:58:13.918Z,1.51
2018-02-09T10:00:42.770Z,1.59
2018-02-09T10:03:10.306Z,1.64
2018-02-09T10:05:38.765Z,1.68
2018-02-09T10:08:06.222Z,1.70
2018-02-09T10:10:33.815Z,1.72
2018-02-09T10:13:01.353Z,1.72
2018-02-09T10:15:28.842Z,1.83
2018-02-09T10:17:56.486Z,1.94
2018-02-09T10:20:24.193Z,2.14
2018-02-09T10:22:52.508Z,2.63
2018-02-09T10:25:19.969Z,3.42
2018-02-09T10:27:47.610Z,4.43
2018-02-09T10:30:15.170Z,5.18
2018-02-09T10:32:42.745Z,5.50
2018-02-09T10:35:10.325Z,5.61
2018-02-09T10:37:37.798Z,5.63
2018-02-09T10:40:05.254Z,5.47
2018-02-09T10:42:32.844Z,5.30
2018-02-09T10:45:00.378Z,5.48
2018-02-09T10:47:27.861Z,5.60
2018-02-09T10:49:55.366Z,5.84
2018-02-09T10:52:22.922Z,6.14
2018-02-09T10:54:50.491Z,6.38
2018-02-09T10:57:18.040Z,6.23
2018-02-09T10:59:45.605Z,6.01
2018-02-09T11:02:13.259Z,5.58
2018-02-09T11:04:40.882Z,4.95
2018-02-09T11:07:08.357Z,4.63
2018-02-09T11:09:37.099Z,4.46
2018-02-09T11:12:07.572Z,4.22
2018-02-09T11:14:35.126Z,4.00
2018-02-09T11:17:02.658Z,3.78
2018-02-09T11:19:31.079Z,3.60
2018-02-09T11:21:59.335Z,3.46
2018-02-09T11:24:26.903Z,3.28
2018-02-09T11:26:54.447Z,3.23
2018-02-09T11:29:21.942Z,3.22
2018-02-09T11:31:49.827Z,3.12
2018-02-09T11:34:17.379Z,3.07
2018-02-09T11:36:45.949Z,3.03
2018-02-09T11:39:13.800Z,3.08
2018-02-09T11:41:41.292Z,3.01
2018-02-09T11:44:08.925Z,2.99
2018-02-09T11:46:36.574Z,3.01
2018-02-09T11:49:04.039Z,3.08
2018-02-09T11:51:31.526Z,3.18
2018-02-09T11:53:59.171Z,3.20
2018-02-09T11:56:26.804Z,3.19
2018-02-09T11:58:54.588Z,3.24
2018-02-09T12:01:22.216Z,3.38
2018-02-09T12:03:49.870Z,3.51
2018-02-09T12:06:17.938Z,3.59
2018-02-09T12:08:45.504Z,3.69
2018-02-09T12:11:13.218Z,3.97
2018-02-09T12:13:40.773Z,4.14
2018-02-09T12:16:08.334Z,4.20
2018-02-09T12:18:35.840Z,4.31
2018-02-09T12:21:03.338Z,4.34
2018-02-09T12:23:30.811Z,4.33
2018-02-09T12:25:59.433Z,4.23
2018-02-09T12:28:27.514Z,3.95
2018-02-09T12:30:54.970Z,3.75
2018-02-09T12:33:22.508Z,3.55
2018-02-09T12:35:50.050Z,3.41
2018-02-09T12:38:17.530Z,3.25
2018-02-09T12:40:45.034Z,3.18
2018-02-09T12:43:12.730Z,3.08
2018-02-09T12:45:40.269Z,3.00
2018-02-09T12:48:07.732Z,2.96
2018-02-09T12:50:35.212Z,2.93
2018-02-09T12:53:02.758Z,2.90
2018-02-09T12:55:30.276Z,2.83
2018-02-09T12:57:57.772Z,2.83
2018-02-09T13:00:25.368Z,2.78
2018-02-09T13:02:52.969Z,2.73
2018-02-09T13:05:21.344Z,2.74
2018-02-09T13:07:49.010Z,2.77
2018-02-09T13:10:16.468Z,2.79
2018-02-09T13:12:55.881Z,2.83
2018-02-09T13:15:23.360Z,2.84
2018-02-09T13:17:50.987Z,2.80
2018-02-09T13:20:18.512Z,2.75
2018-02-09T13:22:57.893Z,2.74
2018-02-09T13:25:25.338Z,2.68
2018-02-09T13:27:52.782Z,2.65
2018-02-09T13:30:20.395Z,2.63
2018-02-09T13:32:59.661Z,2.62
2018-02-09T13:35:28.950Z,2.63
2018-02-09T13:37:56.554Z,2.62
2018-02-09T13:40:24.130Z,2.62
2018-02-09T13:42:56.581Z,2.65
2018-02-09T13:45:25.072Z,2.63
2018-02-09T13:47:52.575Z,2.63
2018-02-09T13:50:20.872Z,2.60
2018-02-09T13:52:48.605Z,2.58
2018-02-09T13:55:16.158Z,2.59
2018-02-09T13:57:43.653Z,2.56
2018-02-09T14:00:11.153Z,2.54
2018-02-09T14:02:38.738Z,2.55
2018-02-09T14:05:06.273Z,2.56
2018-02-09T14:07:33.765Z,2.56
2018-02-09T14:10:01.428Z,2.58
2018-02-09T14:12:29.055Z,2.60
2018-02-09T14:14:56.543Z,2.57
2018-02-09T14:17:24.061Z,2.57
2018-02-09T14:19:51.760Z,2.59
2018-02-09T14:22:19.568Z,2.61
2018-02-09T14:24:47.044Z,2.62
2018-02-09T14:27:14.594Z,2.64
2018-02-09T14:29:43.138Z,2.63
2018-02-09T14:32:10.692Z,2.63
2018-02-09T14:34:38.189Z,2.64
2018-02-09T14:37:05.695Z,2.64
2018-02-09T14:39:33.244Z,2.65
2018-02-09T14:42:00.751Z,2.64
2018-02-09T14:44:28.349Z,2.67
2018-02-09T14:46:55.957Z,2.63
2018-02-09T14:49:23.553Z,2.69
2018-02-09T14:51:51.167Z,2.65
2018-02-09T14:54:19.039Z,2.63
2018-02-09T14:56:47.027Z,2.65
2018-02-09T14:59:14.710Z,2.67
2018-02-09T15:01:42.305Z,2.68
2018-02-09T15:04:10.441Z,2.69
2018-02-09T15:06:38.839Z,2.63
2018-02-09T15:09:06.329Z,2.61
2018-02-09T15:11:34.012Z,2.59
2018-02-09T15:14:01.532Z,2.57
2018-02-09T15:16:29.202Z,2.56
2018-02-09T15:18:56.755Z,2.59
2018-02-09T15:21:24.273Z,2.56
2018-02-09T15:23:51.750Z,2.57
2018-02-09T15:26:19.570Z,2.59
2018-02-09T15:28:47.049Z,2.61
2018-02-09T15:31:14.609Z,2.61
2018-02-09T15:33:42.749Z,2.64
2018-02-09T15:36:10.622Z,2.65
2018-02-09T15:38:38.213Z,2.66
2018-02-09T15:41:05.744Z,2.67
2018-02-09T15:43:33.229Z,2.66
2018-02-09T15:46:00.908Z,2.68
2018-02-09T15:48:28.533Z,2.67
2018-02-09T15:50:56.042Z,2.67
2018-02-09T15:53:23.543Z,2.67
2018-02-09T15:55:51.058Z,2.66
2018-02-09T15:58:18.613Z,2.67
2018-02-09T16:00:47.996Z,2.69
2018-02-09T16:03:15.625Z,2.72
2018-02-09T16:05:43.832Z,2.69
2018-02-09T16:08:11.311Z,2.68
2018-02-09T16:10:38.892Z,2.66
2018-02-09T16:13:06.433Z,2.67
2018-02-09T16:15:34.033Z,2.67
2018-02-09T16:18:01.619Z,2.66
2018-02-09T16:20:29.113Z,2.67
2018-02-09T16:23:01.947Z,2.64
2018-02-09T16:25:30.380Z,2.63
2018-02-09T16:27:58.075Z,2.64
2018-02-09T16:30:25.665Z,2.61
2018-02-09T16:32:53.154Z,2.61
2018-02-09T16:35:20.662Z,2.61
2018-02-09T16:37:48.335Z,2.61
2018-02-09T16:40:16.315Z,2.66
2018-02-09T16:42:43.879Z,2.66
2018-02-09T16:45:11.469Z,2.63
2018-02-09T16:47:39.358Z,2.63
2018-02-09T16:50:06.935Z,2.63
2018-02-09T16:52:34.527Z,2.65
2018-02-09T16:55:02.109Z,2.74
2018-02-09T16:57:29.738Z,2.68
2018-02-09T16:59:57.195Z,2.69
2018-02-09T17:02:24.720Z,2.66
2018-02-09T17:04:52.223Z,2.65
2018-02-09T17:07:19.721Z,2.65
2018-02-09T17:09:47.828Z,2.66
2018-02-09T17:12:16.495Z,2.69
2018-02-09T17:14:44.009Z,2.66
2018-02-09T17:17:11.597Z,2.63
2018-02-09T17:19:39.115Z,2.62
2018-02-09T17:22:06.657Z,2.62
2018-02-09T17:24:34.141Z,2.60
2018-02-09T17:27:03.066Z,2.60
2018-02-09T17:29:30.560Z,2.59
2018-02-09T17:31:58.125Z,2.52
2018-02-09T17:34:25.723Z,2.52
2018-02-09T17:36:53.224Z,2.48
2018-02-09T17:39:20.715Z,2.45
2018-02-09T17:41:48.285Z,2.50
2018-02-09T17:44:15.995Z,2.56
2018-02-09T17:46:43.492Z,2.61
2018-02-09T17:49:11.827Z,2.66
2018-02-09T17:51:54.497Z,2.70
2018-02-09T17:54:22.213Z,2.73
2018-02-09T17:56:49.862Z,2.73
2018-02-09T17:59:18.449Z,2.71
2018-02-09T18:01:45.928Z,2.73
2018-02-09T18:04:13.651Z,2.75
2018-02-09T18:06:41.177Z,2.72
2018-02-09T18:09:08.785Z,2.71
2018-02-09T18:11:36.746Z,2.68
2018-02-09T18:14:04.255Z,2.71
2018-02-09T18:16:31.726Z,2.70
2018-02-09T18:18:59.286Z,2.67
2018-02-09T18:21:27.091Z,2.68
2018-02-09T18:23:54.678Z,2.66
2018-02-09T18:26:22.314Z,2.64
2018-02-09T18:28:49.921Z,2.64
2018-02-09T18:31:17.502Z,2.62
2018-02-09T18:33:45.041Z,2.61
2018-02-09T18:36:12.582Z,2.61
2018-02-09T18:38:40.177Z,2.60
2018-02-09T18:41:07.935Z,2.60
2018-02-09T18:43:35.535Z,2.62
2018-02-09T18:46:03.101Z,2.61
2018-02-09T18:48:30.683Z,2.60
2018-02-09T18:50:58.301Z,2.60
2018-02-09T18:53:25.881Z,2.61
2018-02-09T18:55:53.449Z,2.59
2018-02-09T18:58:21.331Z,2.60
2018-02-09T19:00:48.918Z,2.59
2018-02-09T19:03:16.476Z,2.59
2018-02-09T19:05:44.093Z,2.58
2018-02-09T19:08:11.717Z,2.58
2018-02-09T19:10:39.465Z,2.57
2018-02-09T19:13:06.932Z,2.57
2018-02-09T19:15:34.401Z,2.56
2018-02-09T19:18:03.157Z,2.56
2018-02-09T19:20:30.675Z,2.54
2018-02-09T19:22:58.296Z,2.56
2018-02-09T19:25:25.875Z,2.55
2018-02-09T19:27:53.538Z,2.52
2018-02-09T19:30:21.100Z,2.50
2018-02-09T19:32:48.697Z,2.50
2018-02-09T19:35:16.190Z,2.50
2018-02-09T19:37:43.673Z,2.53
2018-02-09T19:40:11.616Z,2.52
2018-02-09T19:42:39.176Z,2.54
2018-02-09T19:45:06.697Z,2.53
2018-02-09T19:47:34.236Z,2.53
2018-02-09T19:50:01.721Z,2.53
2018-02-09T19:52:29.254Z,2.54
2018-02-09T19:54:56.886Z,2.51
2018-02-09T19:57:24.534Z,2.49
2018-02-09T19:59:52.139Z,2.50
2018-02-09T20:02:19.852Z,2.48
2018-02-09T20:04:47.384Z,2.45
2018-02-09T20:07:14.944Z,2.48
2018-02-09T20:09:42.970Z,2.49
2018-02-09T20:12:15.488Z,2.49
2018-02-09T20:14:43.114Z,2.49
2018-02-09T20:17:10.652Z,2.50
2018-02-09T20:19:38.206Z,2.54
2018-02-09T20:22:05.796Z,2.55
2018-02-09T20:24:33.387Z,2.53
2018-02-09T20:27:01.055Z,2.54
2018-02-09T20:29:28.616Z,2.54
2018-02-09T20:31:56.262Z,2.56
2018-02-09T20:34:23.804Z,2.56
2018-02-09T20:36:51.321Z,2.54
2018-02-09T20:39:20.089Z,2.55
2018-02-09T20:41:47.733Z,2.54
2018-02-09T20:44:15.294Z,2.55
2018-02-09T20:46:42.862Z,2.54
2018-02-09T20:49:10.340Z,2.58
2018-02-09T20:51:37.866Z,2.57
2018-02-09T20:54:05.558Z,2.57
2018-02-09T20:56:33.058Z,2.56
2018-02-09T20:59:00.508Z,2.56
2018-02-09T21:01:28.111Z,2.53
2018-02-09T21:03:55.589Z,2.52
2018-02-09T21:06:23.138Z,2.52
2018-02-09T21:08:50.644Z,2.53
2018-02-09T21:11:18.153Z,2.53
2018-02-09T21:13:45.626Z,2.54
2018-02-09T21:16:13.287Z,2.55
2018-02-09T21:18:40.764Z,2.55
2018-02-09T21:21:08.243Z,2.56
2018-02-09T21:23:36.199Z,2.60
2018-02-09T21:26:04.044Z,2.62
2018-02-09T21:28:31.515Z,2.62
2018-02-09T21:30:59.073Z,2.62
2018-02-09T21:33:26.674Z,2.61
2018-02-09T21:35:54.242Z,2.61
2018-02-09T21:38:21.914Z,2.63
2018-02-09T21:40:49.518Z,2.64
2018-02-09T21:43:17.061Z,2.61
2018-02-09T21:45:44.600Z,2.62
2018-02-09T21:48:12.070Z,2.61
2018-02-09T21:50:39.526Z,2.60
2018-02-09T21:53:07.003Z,2.60
2018-02-09T21:55:35.200Z,2.61
2018-02-09T21:58:02.729Z,2.57
2018-02-09T22:00:30.225Z,2.57
2018-02-09T22:02:57.907Z,2.59
2018-02-09T22:05:25.554Z,2.61
2018-02-09T22:07:56.368Z,2.62
2018-02-09T22:10:23.900Z,2.65
2018-02-09T22:12:51.490Z,2.68
2018-02-09T22:15:19.027Z,2.66
2018-02-09T22:17:46.531Z,2.67
2018-02-09T22:20:14.000Z,2.67
2018-02-09T22:22:41.491Z,2.69
2018-02-09T22:25:08.959Z,2.69
2018-02-09T22:27:36.463Z,2.69
2018-02-09T22:30:04.887Z,2.70
2018-02-09T22:32:32.527Z,2.72
2018-02-09T22:35:00.104Z,2.74
2018-02-09T22:37:27.585Z,2.74
2018-02-09T22:39:55.199Z,2.76
2018-02-09T22:42:22.675Z,2.77
2018-02-09T22:44:50.139Z,2.76
2018-02-09T22:47:17.677Z,2.77
2018-02-09T22:49:45.453Z,2.77
2018-02-09T22:52:13.097Z,2.79
2018-02-09T22:54:40.696Z,2.78
2018-02-09T22:57:08.405Z,2.76
2018-02-09T22:59:36.189Z,2.76
2018-02-09T23:02:03.685Z,2.76
2018-02-09T23:04:31.199Z,2.75
2018-02-09T23:06:58.705Z,2.75
2018-02-09T23:09:26.139Z,2.72
2018-02-09T23:11:53.596Z,2.70
2018-02-09T23:14:21.113Z,2.69
2018-02-09T23:16:48.612Z,2.70
2018-02-09T23:19:16.090Z,2.67
2018-02-09T23:21:43.517Z,2.66
2018-02-09T23:24:11.082Z,2.67
2018-02-09T23:26:38.572Z,2.68
2018-02-09T23:29:06.020Z,2.66
2018-02-09T23:31:33.553Z,2.63
2018-02-09T23:34:01.061Z,2.66
2018-02-09T23:36:28.592Z,2.65
2018-02-09T23:38:56.098Z,2.65
2018-02-09T23:41:23.600Z,2.65
2018-02-09T23:43:51.110Z,2.65
2018-02-09T23:46:18.625Z,2.64
2018-02-09T23:48:46.099Z,2.62
2018-02-09T23:51:13.595Z,2.58
2018-02-09T23:53:41.061Z,2.57
2018-02-09T23:56:08.553Z,2.56
2018-02-09T23:58:36.201Z,2.56
